Dalkeith, United Kingdom
Current Conditions -  °F | °C
As of 2:20 PM on Friday 28 Nov 2014 (Local Time) from EGPH Reporting Station
Broken Clouds Broken Clouds  
Wind Chill: 50°   Ceiling: 1800
Heat Index: 50°   Visibility: 4mi
Dew Point: 48°   Wind: 7mph
Humidity: 94%   Direction: 70°ENE
Pressure: 29.8"   Gusts: NA
Location:  55.9°N, 3.07°W
Report Text: EGPH 281420Z 07006KT 6000 SCT005 BKN018 10/09 Q1009
Loading
Personal Weather Stations






























Interactive Weather Map New forecast layout! Learn more

10-Day Weather Forecast

Advertisements
Track Severe Weather on mobile